Time;durP1;ratioP1;P1;durP2;ratioP2;P2;SDS_P1;SDS_P2;PMS_P1;PMS_P2;Temp;Humidity;BMP_temperature;BMP_pressure;BME280_temperature;BME280_humidity;BME280_pressure;Samples;Min_cycle;Max_cycle;Signal;HPM_P1;HPM_P2
2022/04/21 00:00:21;;;;;;;11.38;9.00;;;;;;;6.10;100.00;95758.59;5102215;27;20083;-45
2022/04/21 00:02:49;;;;;;;11.38;9.57;;;;;;;5.82;100.00;95765.38;5110038;27;20067;-44
2022/04/21 00:05:18;;;;;;;13.10;9.30;;;;;;;5.90;100.00;95765.53;5102797;27;20095;-47
2022/04/21 00:07:48;;;;;;;11.05;9.43;;;;;;;5.82;100.00;95753.13;5103484;27;20042;-50
2022/04/21 00:10:17;;;;;;;13.18;9.13;;;;;;;5.53;100.00;95747.75;5102701;28;20055;-50
2022/04/21 00:12:45;;;;;;;15.70;9.65;;;;;;;5.43;100.00;95749.50;5104303;27;20505;-46
2022/04/21 00:15:15;;;;;;;12.25;9.73;;;;;;;5.70;100.00;95749.75;5103666;27;20055;-44
2022/04/21 00:17:44;;;;;;;13.80;9.32;;;;;;;5.59;100.00;95749.88;5105384;27;20067;-43
2022/04/21 00:20:13;;;;;;;11.27;9.20;;;;;;;5.57;100.00;95749.16;5104597;27;20072;-49
2022/04/21 00:25:28;;;;;;;11.52;9.35;;;;;;;5.39;100.00;95741.09;5099085;28;20072;-47
2022/04/21 00:27:57;;;;;;;14.55;9.40;;;;;;;5.11;100.00;95740.00;5103659;28;20094;-47
2022/04/21 00:30:27;;;;;;;12.07;9.13;;;;;;;5.07;100.00;95741.22;5101119;28;20087;-48
2022/04/21 00:32:55;;;;;;;10.60;9.38;;;;;;;5.21;100.00;95732.22;5100504;28;20074;-50
2022/04/21 00:35:26;;;;;;;14.05;9.63;;;;;;;5.29;100.00;95729.75;5102430;28;20494;-48
2022/04/21 00:37:55;;;;;;;10.85;9.43;;;;;;;5.22;100.00;95731.25;5107044;27;20066;-50
2022/04/21 00:40:26;;;;;;;13.15;9.45;;;;;;;5.30;100.00;95727.97;5101729;28;20063;-45
2022/04/21 00:42:55;;;;;;;12.50;8.95;;;;;;;4.86;100.00;95736.00;5104779;28;20070;-49
2022/04/21 00:45:23;;;;;;;14.00;10.07;;;;;;;4.96;100.00;95736.88;5105608;28;20075;-47
2022/04/21 00:47:55;;;;;;;12.35;9.35;;;;;;;4.70;100.00;95725.97;5101629;28;20067;-44
2022/04/21 00:50:25;;;;;;;15.43;9.60;;;;;;;4.72;100.00;95731.09;5106040;27;20474;-44
2022/04/21 00:52:55;;;;;;;15.75;10.40;;;;;;;4.76;100.00;95725.47;5111683;27;20070;-50
2022/04/21 00:55:23;;;;;;;13.00;9.57;;;;;;;4.75;100.00;95723.81;5109783;27;20064;-49
2022/04/21 00:57:53;;;;;;;14.52;9.80;;;;;;;4.96;100.00;95718.59;5107984;27;20083;-48
2022/04/21 01:00:21;;;;;;;14.35;10.00;;;;;;;5.03;100.00;95720.69;5107993;27;20083;-54
2022/04/21 01:02:52;;;;;;;11.60;9.32;;;;;;;4.98;100.00;95716.66;5085637;28;20059;-49
2022/04/21 01:05:29;;;;;;;14.10;9.82;;;;;;;5.11;100.00;95715.66;5108740;27;20702;-48
2022/04/21 01:07:59;;;;;;;14.38;10.32;;;;;;;5.07;100.00;95717.69;5105849;27;20051;-49
2022/04/21 01:10:28;;;;;;;11.80;9.95;;;;;;;5.10;100.00;95716.63;5093283;27;20072;-53
2022/04/21 01:12:57;;;;;;;11.25;9.60;;;;;;;4.81;100.00;95712.03;5088449;27;20110;-46
2022/04/21 01:15:26;;;;;;;11.88;9.80;;;;;;;4.79;100.00;95711.34;5111108;27;20140;-47
2022/04/21 01:17:55;;;;;;;12.55;9.73;;;;;;;4.84;100.00;95710.94;5107363;27;20066;-50
2022/04/21 01:20:25;;;;;;;15.70;10.32;;;;;;;4.92;100.00;95714.59;5104174;28;20059;-50
2022/04/21 01:22:54;;;;;;;14.07;9.63;;;;;;;4.93;100.00;95711.00;5107174;27;20059;-50
2022/04/21 01:25:24;;;;;;;11.98;9.90;;;;;;;4.83;100.00;95720.56;5102891;27;20067;-48
2022/04/21 01:27:59;;;;;;;13.07;10.63;;;;;;;4.18;100.00;95729.41;5110996;27;20422;-46
2022/04/21 01:30:28;;;;;;;13.38;9.73;;;;;;;4.59;100.00;95723.44;5107519;27;20071;-47
2022/04/21 01:32:56;;;;;;;16.27;10.27;;;;;;;4.49;100.00;95710.28;5114741;27;20077;-51
2022/04/21 01:35:26;;;;;;;11.65;10.02;;;;;;;4.62;100.00;95702.28;5087300;28;20158;-50
2022/04/21 01:43:27;;;;;;;15.40;10.00;;;;;;;4.56;100.00;95694.97;5104473;28;20068;-48
2022/04/21 01:45:56;;;;;;;10.82;9.40;;;;;;;4.73;100.00;95702.22;5108572;27;20078;-49
2022/04/21 01:48:24;;;;;;;12.07;10.15;;;;;;;4.78;100.00;95703.63;5110121;27;20090;-51
2022/04/21 01:50:54;;;;;;;14.30;10.13;;;;;;;4.65;100.00;95698.59;5106827;27;20063;-49
2022/04/21 01:53:22;;;;;;;11.85;10.32;;;;;;;4.78;100.00;95703.63;5106046;27;20062;-47
2022/04/21 01:55:51;;;;;;;11.48;10.15;;;;;;;4.73;100.00;95706.63;5105665;27;21022;-47
2022/04/21 01:58:20;;;;;;;11.52;9.95;;;;;;;4.75;100.00;95705.53;5105461;27;20520;-48
2022/04/21 02:00:48;;;;;;;15.55;10.95;;;;;;;4.84;100.00;95698.72;5117673;27;20078;-51
2022/04/21 02:03:16;;;;;;;14.20;10.65;;;;;;;4.79;100.00;95707.91;5107071;27;20062;-51
2022/04/21 02:05:45;;;;;;;15.60;10.48;;;;;;;4.73;100.00;95701.41;5091025;27;20075;-48
2022/04/21 02:08:15;;;;;;;12.25;10.45;;;;;;;4.69;100.00;95700.00;5102154;27;20056;-46
2022/04/21 02:10:44;;;;;;;14.20;10.63;;;;;;;4.49;100.00;95701.63;5105603;28;20134;-46
2022/04/21 02:13:13;;;;;;;11.73;9.82;;;;;;;4.59;100.00;95699.94;5106695;27;20067;-48
2022/04/21 02:15:41;;;;;;;12.68;9.93;;;;;;;4.60;100.00;95687.69;5110256;27;20035;-47
2022/04/21 02:18:10;;;;;;;13.93;10.07;;;;;;;4.63;100.00;95698.72;5090871;27;20074;-49
2022/04/21 02:20:38;;;;;;;15.70;9.85;;;;;;;4.28;100.00;95691.19;5105523;28;20056;-49
2022/04/21 02:23:07;;;;;;;12.43;9.63;;;;;;;4.22;100.00;95687.28;5105643;27;20089;-45
2022/04/21 02:25:36;;;;;;;12.88;10.35;;;;;;;4.29;100.00;95690.22;5104331;27;20063;-49
2022/04/21 02:28:05;;;;;;;15.63;10.27;;;;;;;4.40;100.00;95684.13;5115292;27;20074;-51
2022/04/21 02:30:34;;;;;;;15.52;10.40;;;;;;;4.12;100.00;95688.97;5102914;27;20919;-50
2022/04/21 02:33:02;;;;;;;15.95;9.70;;;;;;;3.98;100.00;95684.88;5110466;27;20071;-51
2022/04/21 02:35:30;;;;;;;14.00;10.25;;;;;;;4.15;100.00;95680.91;5106239;27;20509;-49
2022/04/21 02:37:59;;;;;;;16.20;10.40;;;;;;;4.05;100.00;95680.81;5108895;27;20063;-46
2022/04/21 02:40:27;;;;;;;17.35;10.48;;;;;;;4.08;100.00;95674.53;5105479;27;20063;-45
2022/04/21 02:42:57;;;;;;;11.85;9.60;;;;;;;4.19;100.00;95677.09;5112291;27;20075;-51
2022/04/21 02:45:25;;;;;;;12.40;9.97;;;;;;;4.30;100.00;95678.81;5106574;27;22050;-45
2022/04/21 02:47:53;;;;;;;13.18;9.98;;;;;;;4.16;100.00;95679.09;5106576;27;20496;-48
2022/04/21 02:50:23;;;;;;;16.73;9.63;;;;;;;4.19;100.00;95677.09;5104937;27;20067;-49
2022/04/21 02:52:52;;;;;;;14.53;9.83;;;;;;;4.22;100.00;95674.22;5106280;27;20039;-45
2022/04/21 02:58:07;;;;;;;13.60;9.40;;;;;;;4.45;100.00;95676.75;5105898;28;20067;-49
2022/04/21 03:00:36;;;;;;;14.07;10.27;;;;;;;4.34;100.00;95671.59;5106622;27;20083;-48
2022/04/21 03:03:04;;;;;;;13.65;9.95;;;;;;;4.43;100.00;95671.63;5102268;27;20283;-47
2022/04/21 03:05:33;;;;;;;12.90;10.65;;;;;;;4.52;100.00;95670.88;5106761;27;20486;-48
2022/04/21 03:08:01;;;;;;;16.02;10.35;;;;;;;4.53;100.00;95669.91;5107219;27;20085;-50
2022/04/21 03:10:30;;;;;;;11.90;9.88;;;;;;;4.50;100.00;95672.78;5104824;27;20056;-51
2022/04/21 03:12:59;;;;;;;13.85;10.88;;;;;;;4.53;100.00;95669.91;5106722;27;20077;-50
2022/04/21 03:15:28;;;;;;;11.93;10.07;;;;;;;4.35;100.00;95665.41;5103135;28;20086;-47
2022/04/21 03:17:57;;;;;;;14.90;10.50;;;;;;;4.23;100.00;95654.19;5104608;27;20525;-48
2022/04/21 03:25:57;;;;;;;14.20;10.38;;;;;;;4.75;100.00;95655.94;5103446;27;20070;-55
2022/04/21 03:28:25;;;;;;;14.20;9.88;;;;;;;4.55;100.00;95658.53;5104155;28;20063;-50
2022/04/21 03:30:55;;;;;;;15.98;10.05;;;;;;;4.70;100.00;95657.25;5102456;27;20079;-49
2022/04/21 03:33:24;;;;;;;13.77;10.00;;;;;;;4.80;100.00;95662.53;5105384;27;20079;-47
2022/04/21 03:35:53;;;;;;;12.67;9.90;;;;;;;5.14;100.00;95652.69;5101883;27;20125;-46
2022/04/21 03:38:21;;;;;;;12.00;10.00;;;;;;;5.28;100.00;95654.09;5100400;27;20485;-46
2022/04/21 03:40:49;;;;;;;15.45;10.32;;;;;;;5.41;100.00;95647.69;5101574;27;20074;-52
2022/04/21 03:43:18;;;;;;;15.02;10.65;;;;;;;5.37;100.00;95653.31;5100815;27;20567;-49
2022/04/21 03:45:46;;;;;;;12.93;10.18;;;;;;;5.46;100.00;95655.13;5105780;27;20075;-48
2022/04/21 03:48:16;;;;;;;12.50;9.82;;;;;;;5.36;100.00;95655.09;5087308;27;20453;-48
2022/04/21 03:50:44;;;;;;;12.88;10.18;;;;;;;5.46;100.00;95653.34;5106258;27;20071;-49
2022/04/21 03:53:12;;;;;;;12.82;10.18;;;;;;;5.31;100.00;95646.00;5105713;27;20078;-51
2022/04/21 03:55:41;;;;;;;12.68;9.95;;;;;;;5.57;100.00;95644.53;5104099;27;20469;-46
2022/04/21 03:58:09;;;;;;;13.32;9.55;;;;;;;5.67;100.00;95639.34;5105218;27;20043;-48
2022/04/21 04:00:38;;;;;;;10.95;9.15;;;;;;;5.55;100.00;95633.41;5105268;27;20520;-47
2022/04/21 04:03:06;;;;;;;15.18;9.60;;;;;;;5.66;100.00;95637.69;5099620;27;20075;-46
2022/04/21 04:05:36;;;;;;;13.70;9.77;;;;;;;5.54;100.00;95633.53;5103943;28;20063;-48
2022/04/21 04:10:53;;;;;;;12.63;9.80;;;;;;;5.13;100.00;95645.81;5102666;27;20056;-46
2022/04/21 04:13:22;;;;;;;11.73;9.52;;;;;;;4.99;100.00;95647.81;5109529;27;20070;-50
2022/04/21 04:15:51;;;;;;;15.18;10.15;;;;;;;5.09;100.00;95649.59;5105183;27;20071;-47
2022/04/21 04:18:20;;;;;;;14.43;11.50;;;;;;;5.21;100.00;95649.41;5104550;27;20079;-52
2022/04/21 04:20:50;;;;;;;12.27;9.77;;;;;;;5.35;100.00;95636.94;5099784;28;20070;-49
2022/04/21 04:23:19;;;;;;;20.00;10.43;;;;;;;5.18;100.00;95639.19;5098017;27;20548;-47
2022/04/21 04:25:48;;;;;;;13.75;10.68;;;;;;;4.92;100.00;95644.06;5099526;27;20074;-54
2022/04/21 04:28:16;;;;;;;14.63;11.05;;;;;;;5.25;100.00;95649.97;5104410;27;20067;-48
2022/04/21 04:30:45;;;;;;;14.25;11.38;;;;;;;5.04;100.00;95652.63;5103699;28;20087;-45
2022/04/21 04:33:14;;;;;;;15.30;11.10;;;;;;;4.73;100.00;95647.38;5099679;27;20083;-47
2022/04/21 04:35:43;;;;;;;13.02;10.75;;;;;;;4.77;100.00;95653.16;5101976;27;20055;-47
2022/04/21 04:38:14;;;;;;;13.45;10.82;;;;;;;4.68;100.00;95651.31;5098728;27;20067;-53
2022/04/21 04:40:42;;;;;;;12.60;10.48;;;;;;;4.73;100.00;95652.59;5101712;27;20064;-46
2022/04/21 04:43:10;;;;;;;14.10;10.88;;;;;;;4.86;100.00;95652.41;5103778;27;20083;-52
2022/04/21 04:48:24;;;;;;;14.85;11.55;;;;;;;5.28;100.00;95647.09;5094684;28;20459;-47
2022/04/21 04:50:52;;;;;;;15.20;11.40;;;;;;;5.18;100.00;95652.28;5098282;28;20082;-48
2022/04/21 04:53:22;;;;;;;17.40;12.00;;;;;;;5.37;100.00;95650.72;5096906;28;20071;-45
2022/04/21 04:55:50;;;;;;;12.63;10.57;;;;;;;5.47;100.00;95651.53;5098822;28;20070;-45
2022/04/21 04:58:19;;;;;;;14.35;10.65;;;;;;;5.57;100.00;95639.31;5099000;28;20612;-46
2022/04/21 05:00:47;;;;;;;11.98;10.48;;;;;;;5.87;100.00;95637.59;5095804;28;20094;-45
2022/04/21 05:03:19;;;;;;;15.07;11.15;;;;;;;6.12;100.00;95644.13;5095682;28;20079;-48
2022/04/21 05:05:47;;;;;;;16.25;11.70;;;;;;;6.29;100.00;95648.66;5099741;28;20067;-45
2022/04/21 05:08:15;;;;;;;17.60;11.00;;;;;;;6.74;100.00;95650.69;5096854;28;20060;-45
2022/04/21 05:10:45;;;;;;;12.50;11.13;;;;;;;6.72;100.00;95649.19;5096014;28;20059;-45
2022/04/21 05:13:13;;;;;;;14.67;12.07;;;;;;;6.66;100.00;95650.56;5096625;28;20560;-48
2022/04/21 05:15:42;;;;;;;15.32;12.35;;;;;;;6.80;100.00;95644.88;5094267;28;20081;-51
2022/04/21 05:18:11;;;;;;;15.82;11.85;;;;;;;6.95;100.00;95650.53;5095334;28;20091;-46
2022/04/21 05:20:40;;;;;;;14.15;11.57;;;;;;;6.89;100.00;95640.59;5098656;28;20111;-50
2022/04/21 05:23:09;;;;;;;14.77;11.98;;;;;;;7.23;100.00;95642.69;5092078;28;20544;-44
2022/04/21 05:25:40;;;;;;;16.20;11.57;;;;;;;7.32;100.00;95639.19;5096936;28;20147;-48
2022/04/21 05:28:11;;;;;;;16.35;11.80;;;;;;;7.40;100.00;95644.56;5095460;28;20578;-46
2022/04/21 05:30:58;;;;;;;14.25;11.80;;;;;;;7.22;100.00;95641.03;5094779;28;20081;-51
2022/04/21 05:33:28;;;;;;;15.85;11.30;;;;;;;7.42;100.00;95647.84;5099487;28;20060;-46
2022/04/21 05:35:58;;;;;;;13.00;11.35;;;;;;;7.51;100.00;95644.34;5100234;27;20075;-45
2022/04/21 05:38:27;;;;;;;15.10;11.30;;;;;;;7.54;100.00;95636.19;5098116;27;20074;-50
2022/04/21 05:40:56;;;;;;;13.98;10.38;;;;;;;7.68;100.00;95641.94;5097575;27;20481;-46
2022/04/21 05:43:31;;;;;;;14.95;11.05;;;;;;;7.56;100.00;95642.09;5096321;27;20071;-48
2022/04/21 05:46:00;;;;;;;14.63;11.25;;;;;;;7.77;100.00;95638.41;5099868;27;20059;-47
2022/04/21 05:48:29;;;;;;;13.18;11.15;;;;;;;8.12;100.00;95632.38;5080073;28;20067;-48
2022/04/21 05:51:00;;;;;;;12.55;10.93;;;;;;;8.18;100.00;95625.69;5103113;27;20067;-48
2022/04/21 05:53:29;;;;;;;16.48;11.77;;;;;;;7.89;100.00;95628.53;5096214;28;20064;-48
2022/04/21 05:55:58;;;;;;;12.90;10.35;;;;;;;7.73;100.00;95632.63;5098209;27;20059;-45
2022/04/21 05:58:27;;;;;;;15.27;11.10;;;;;;;7.97;100.00;95632.06;5098511;27;20056;-46
2022/04/21 06:01:00;;;;;;;15.95;11.13;;;;;;;7.84;100.00;95624.56;5101718;27;20457;-50
2022/04/21 06:03:31;;;;;;;13.48;11.23;;;;;;;8.14;100.00;95630.41;5078854;28;20121;-47
2022/04/21 06:06:00;;;;;;;13.95;11.23;;;;;;;8.05;100.00;95631.31;5085633;28;20532;-47
2022/04/21 06:08:29;;;;;;;13.05;10.95;;;;;;;8.20;100.00;95629.81;5098136;27;20055;-47
2022/04/21 06:10:57;;;;;;;12.70;11.10;;;;;;;8.16;100.00;95625.84;5102286;27;20442;-47
2022/04/21 06:13:25;;;;;;;16.30;11.70;;;;;;;8.35;100.00;95621.41;5099675;27;20051;-50
2022/04/21 06:15:55;;;;;;;13.40;10.93;;;;;;;8.36;100.00;95626.50;5095668;27;20094;-47
2022/04/21 06:18:24;;;;;;;15.30;12.25;;;;;;;8.50;100.00;95622.56;5082102;28;20657;-52
2022/04/21 06:20:53;;;;;;;12.77;11.23;;;;;;;8.72;100.00;95626.50;5098071;28;20059;-46
2022/04/21 06:23:22;;;;;;;18.45;11.77;;;;;;;8.93;100.00;95623.50;5103725;27;20055;-50
2022/04/21 06:25:53;;;;;;;14.75;11.18;;;;;;;9.00;100.00;95624.53;5101381;27;20060;-47
2022/04/21 06:28:22;;;;;;;13.63;11.50;;;;;;;8.82;100.00;95623.78;5098397;27;20078;-48
2022/04/21 06:30:50;;;;;;;14.23;11.15;;;;;;;8.83;100.00;95622.78;5099617;27;20075;-46
2022/04/21 06:33:20;;;;;;;13.90;12.00;;;;;;;8.96;100.00;95625.84;5097772;27;20067;-51
2022/04/21 06:35:48;;;;;;;11.85;10.60;;;;;;;8.55;100.00;95622.91;5095755;28;20063;-49
2022/04/21 06:38:17;;;;;;;13.45;11.25;;;;;;;9.20;100.00;95622.53;5100902;27;20524;-50
2022/04/21 06:40:45;;;;;;;14.80;11.68;;;;;;;9.44;100.00;95619.19;5106104;27;20071;-52
2022/04/21 06:48:46;;;;;;;16.90;11.63;;;;;;;9.02;100.00;95617.31;5098534;27;20102;-47
2022/04/21 06:51:15;;;;;;;12.93;11.43;;;;;;;9.58;100.00;95623.00;5099830;27;20066;-48
2022/04/21 06:53:43;;;;;;;16.73;11.35;;;;;;;9.12;100.00;95622.44;5098243;27;20067;-48
2022/04/21 06:56:12;;;;;;;16.70;12.32;;;;;;;9.54;100.00;95622.50;5103831;27;20055;-49
2022/04/21 06:58:41;;;;;;;14.82;12.00;;;;;;;10.04;100.00;95628.72;5101113;27;20059;-45
2022/04/21 07:01:09;;;;;;;15.10;11.18;;;;;;;9.50;100.00;95624.63;5099564;27;20062;-54
2022/04/21 07:03:38;;;;;;;13.32;10.95;;;;;;;9.52;100.00;95621.81;5101805;27;20059;-48
2022/04/21 07:06:08;;;;;;;12.43;10.82;;;;;;;10.31;100.00;95625.84;5081109;28;21509;-47
2022/04/21 07:08:37;;;;;;;15.30;11.48;;;;;;;9.92;100.00;95618.50;5095355;27;20066;-47
2022/04/21 07:11:05;;;;;;;13.57;11.55;;;;;;;10.10;100.00;95620.19;5099406;27;20096;-51
2022/04/21 07:13:33;;;;;;;15.00;11.60;;;;;;;9.70;100.00;95627.84;5071393;28;20075;-46
2022/04/21 07:16:02;;;;;;;15.07;12.13;;;;;;;9.35;100.00;95622.75;5104671;28;20511;-46
2022/04/21 07:18:30;;;;;;;14.50;11.02;;;;;;;9.88;100.00;95624.28;5101769;27;20090;-47
2022/04/21 07:21:00;;;;;;;16.33;11.05;;;;;;;9.83;100.00;95623.91;5097589;27;20071;-50
2022/04/21 07:23:31;;;;;;;15.73;11.13;;;;;;;10.21;100.00;95623.31;5098868;27;20061;-47
2022/04/21 07:26:00;;;;;;;15.35;11.88;;;;;;;9.85;100.00;95621.94;5106564;27;20455;-52
2022/04/21 07:28:28;;;;;;;16.02;11.13;;;;;;;10.32;100.00;95630.09;5100179;27;20299;-48
2022/04/21 07:30:56;;;;;;;16.70;11.25;;;;;;;10.52;100.00;95624.53;5109030;27;20071;-46
2022/04/21 07:33:25;;;;;;;13.65;11.45;;;;;;;10.45;100.00;95630.44;5101390;28;20075;-45
2022/04/21 07:35:54;;;;;;;12.45;10.73;;;;;;;10.62;100.00;95628.66;5098041;27;20074;-49
2022/04/21 07:38:23;;;;;;;14.60;11.40;;;;;;;10.43;100.00;95634.25;5100368;28;20135;-48
2022/04/21 07:40:53;;;;;;;13.65;11.40;;;;;;;10.56;100.00;95631.13;5107266;27;20056;-44
2022/04/21 07:43:23;;;;;;;12.27;10.90;;;;;;;10.53;100.00;95631.44;5102620;27;20067;-45
2022/04/21 07:45:52;;;;;;;13.82;11.10;;;;;;;10.49;100.00;95627.50;5105888;27;20471;-45
2022/04/21 07:48:20;;;;;;;14.95;11.43;;;;;;;10.59;100.00;95628.97;5101918;27;20094;-48
2022/04/21 07:50:49;;;;;;;14.88;12.18;;;;;;;10.49;100.00;95623.03;5105897;27;20098;-48
2022/04/21 07:53:21;;;;;;;13.30;11.15;;;;;;;10.60;100.00;95624.56;5101052;27;20070;-45
2022/04/21 07:55:51;;;;;;;13.55;10.70;;;;;;;10.42;100.00;95616.78;5103562;27;20059;-47
2022/04/21 07:58:21;;;;;;;12.02;10.70;;;;;;;10.31;100.00;95623.19;5095242;27;20155;-52
2022/04/21 08:00:50;;;;;;;12.52;10.93;;;;;;;10.54;100.00;95619.94;5102642;28;20079;-45
2022/04/21 08:03:19;;;;;;;13.18;10.93;;;;;;;10.73;100.00;95624.03;5095245;27;20091;-49
2022/04/21 08:05:48;;;;;;;12.75;10.48;;;;;;;10.20;100.00;95616.41;5108081;27;20059;-46
2022/04/21 08:08:17;;;;;;;13.30;10.50;;;;;;;10.40;100.00;95621.41;5108188;28;20469;-45
2022/04/21 08:10:45;;;;;;;12.77;11.43;;;;;;;10.31;100.00;95632.91;5101370;27;20124;-48
2022/04/21 08:13:17;;;;;;;13.23;11.55;;;;;;;10.69;100.00;95627.00;5104750;27;20072;-45
2022/04/21 08:15:50;;;;;;;15.57;11.88;;;;;;;10.89;100.00;95638.03;5110512;27;20075;-47
2022/04/21 08:18:18;;;;;;;14.00;11.15;;;;;;;11.04;100.00;95635.53;5104820;27;20085;-51
2022/04/21 08:20:48;;;;;;;13.60;11.27;;;;;;;10.73;100.00;95635.38;5103795;27;20064;-48
2022/04/21 08:23:17;;;;;;;16.50;11.90;;;;;;;11.03;100.00;95633.06;5095220;27;20065;-53
2022/04/21 08:34:26;;;;;;;15.70;11.82;;;;;;;11.49;100.00;95627.97;5096463;27;20565;-45
2022/04/21 08:36:55;;;;;;;12.90;11.23;;;;;;;11.49;100.00;95631.44;5097226;28;20095;-52
2022/04/21 08:39:23;;;;;;;15.73;12.00;;;;;;;11.35;100.00;95637.44;5106096;27;20086;-48
2022/04/21 08:41:58;;;;;;;13.40;12.00;;;;;;;11.32;100.00;95620.13;5096529;28;20036;-45
2022/04/21 08:44:28;;;;;;;17.60;11.63;;;;;;;11.78;100.00;95619.47;5094900;28;20052;-44
2022/04/21 08:46:59;;;;;;;12.20;10.52;;;;;;;11.72;100.00;95620.13;5095078;28;20082;-45
2022/04/21 08:49:32;;;;;;;12.90;11.50;;;;;;;11.96;100.00;95616.59;5100585;28;20055;-45
2022/04/21 08:52:01;;;;;;;14.40;11.77;;;;;;;11.85;100.00;95615.16;5097733;28;20059;-49
2022/04/21 08:54:30;;;;;;;14.45;10.63;;;;;;;12.09;95.29;95611.56;5095270;28;20103;-48
2022/04/21 08:56:59;;;;;;;14.10;10.70;;;;;;;12.15;91.81;95618.78;5106493;28;20060;-46
2022/04/21 08:59:28;;;;;;;12.82;10.77;;;;;;;12.30;95.18;95606.44;5095739;28;20074;-44
2022/04/21 09:02:00;;;;;;;15.85;11.15;;;;;;;12.14;94.19;95608.38;5101644;28;20071;-47
2022/04/21 09:04:30;;;;;;;13.25;10.55;;;;;;;12.82;88.94;95610.97;5099022;28;20532;-47
2022/04/21 09:07:14;;;;;;;18.35;11.70;;;;;;;12.50;87.71;95606.81;5107379;28;20047;-49
2022/04/21 09:10:00;;;;;;;13.40;11.30;;;;;;;12.97;84.84;95605.75;5101803;27;20064;-45
2022/04/21 09:12:29;;;;;;;13.00;10.25;;;;;;;12.64;93.89;95612.31;5100848;28;20171;-49
2022/04/21 09:14:58;;;;;;;16.75;11.07;;;;;;;13.16;90.96;95603.56;5104683;27;20108;-48
2022/04/21 09:17:28;;;;;;;14.10;11.10;;;;;;;13.16;85.48;95608.84;5108999;27;20533;-48
2022/04/21 09:19:57;;;;;;;17.03;12.10;;;;;;;12.82;86.16;95603.03;5103543;27;20059;-46
2022/04/21 09:22:26;;;;;;;12.15;10.50;;;;;;;12.97;84.24;95603.09;5096722;28;20477;-50
2022/04/21 09:24:55;;;;;;;15.50;10.75;;;;;;;13.11;75.42;95600.63;5109841;27;20087;-45
2022/04/21 09:27:23;;;;;;;14.65;11.18;;;;;;;12.97;79.10;95608.38;5107534;27;20692;-45
2022/04/21 09:29:51;;;;;;;13.13;11.30;;;;;;;13.15;79.76;95599.28;5096628;27;20122;-45
2022/04/21 09:32:20;;;;;;;12.57;10.18;;;;;;;13.33;80.28;95607.69;5099741;27;20553;-51
2022/04/21 09:34:50;;;;;;;13.85;10.90;;;;;;;13.52;76.02;95599.22;5101806;27;20509;-47
2022/04/21 09:37:20;;;;;;;14.90;10.82;;;;;;;13.76;68.62;95597.25;5098847;27;20071;-49
2022/04/21 09:39:52;;;;;;;12.15;10.27;;;;;;;13.74;75.69;95591.31;5104626;27;20098;-48
2022/04/21 09:42:24;;;;;;;15.98;11.48;;;;;;;13.82;83.22;95596.50;5104506;28;20071;-50
2022/04/21 09:47:48;;;;;;;12.40;10.75;;;;;;;13.82;76.31;95579.78;5065159;28;20046;-47
2022/04/21 09:50:18;;;;;;;13.35;11.02;;;;;;;13.76;74.21;95581.34;5086026;28;20043;-45
2022/04/21 09:52:48;;;;;;;14.27;11.00;;;;;;;13.87;67.23;95580.88;5107886;27;20065;-50
2022/04/21 09:55:24;;;;;;;12.55;10.30;;;;;;;13.80;68.06;95574.69;5104705;28;20067;-50
2022/04/21 09:58:04;;;;;;;15.07;11.00;;;;;;;13.59;69.90;95571.97;5101307;27;20529;-45
2022/04/21 10:00:33;;;;;;;15.45;10.73;;;;;;;14.30;67.96;95574.78;5098224;28;20494;-53
2022/04/21 10:03:03;;;;;;;12.07;10.75;;;;;;;14.00;69.55;95572.22;5082686;28;20071;-45
2022/04/21 10:05:34;;;;;;;15.80;11.02;;;;;;;13.81;64.76;95567.56;5099321;27;20062;-45
2022/04/21 10:08:04;;;;;;;13.77;10.32;;;;;;;14.07;58.64;95573.13;5106184;28;20075;-49
2022/04/21 10:10:34;;;;;;;18.67;10.57;;;;;;;14.28;57.54;95561.72;5105882;27;20415;-48
2022/04/21 10:13:04;;;;;;;13.23;10.15;;;;;;;14.45;57.33;95559.63;5100203;27;20040;-46
2022/04/21 10:15:34;;;;;;;14.52;11.13;;;;;;;14.24;60.24;95555.13;5101982;27;20071;-51
2022/04/21 10:18:03;;;;;;;12.45;10.85;;;;;;;14.56;60.69;95559.16;5096077;28;20078;-46
2022/04/21 10:20:33;;;;;;;12.43;10.95;;;;;;;15.00;62.85;95551.91;5099590;27;20445;-46
2022/04/21 10:23:04;;;;;;;12.60;10.10;;;;;;;14.52;51.74;95546.44;5101183;28;20070;-46
2022/04/21 10:25:37;;;;;;;13.93;9.98;;;;;;;14.40;51.55;95548.78;5108976;27;20042;-47
2022/04/21 10:28:37;;;;;;;12.88;10.35;;;;;;;15.25;52.86;95539.00;5102811;28;20426;-44
2022/04/21 10:31:38;;;;;;;11.05;9.60;;;;;;;14.66;51.32;95540.25;5105174;27;20552;-45
2022/04/21 10:34:07;;;;;;;13.00;10.30;;;;;;;15.09;52.48;95537.47;5010874;28;20445;-47
2022/04/21 10:36:42;;;;;;;13.65;11.20;;;;;;;14.71;53.38;95532.53;5081768;27;20079;-49
2022/04/21 10:39:30;;;;;;;12.93;8.63;;;;;;;14.86;52.25;95535.88;5101099;27;20071;-44
2022/04/21 10:42:15;;;;;;;13.50;9.57;;;;;;;15.33;56.11;95521.06;5110358;27;20060;-48
2022/04/21 10:44:46;;;;;;;12.68;9.65;;;;;;;14.72;47.99;95529.66;5100339;27;20039;-46
2022/04/21 10:47:37;;;;;;;15.27;9.20;;;;;;;14.93;48.39;95528.81;5102023;27;20074;-50
2022/04/21 10:50:16;;;;;;;13.18;10.25;;;;;;;14.85;50.40;95523.63;5105244;28;20078;-51
2022/04/21 10:58:51;;;;;;;11.23;8.88;;;;;;;15.11;43.55;95527.50;5104889;27;20064;-47
2022/04/21 11:01:22;;;;;;;12.75;9.75;;;;;;;15.34;45.13;95517.38;5103262;27;20059;-47
2022/04/21 11:04:14;;;;;;;10.38;9.25;;;;;;;15.21;45.40;95506.72;5100391;27;20095;-47
2022/04/21 11:06:46;;;;;;;10.77;8.63;;;;;;;15.15;44.18;95516.28;5107566;27;20087;-45
2022/04/21 11:09:38;;;;;;;11.40;8.95;;;;;;;15.13;44.40;95505.00;5101247;27;20149;-54
2022/04/21 11:12:43;;;;;;;10.68;8.73;;;;;;;15.54;43.07;95496.19;5097010;27;20464;-55
2022/04/21 11:15:38;;;;;;;11.98;9.63;;;;;;;15.50;42.10;95500.28;5103972;27;20098;-46
2022/04/21 11:18:09;;;;;;;11.15;9.02;;;;;;;15.37;42.80;95498.38;5104999;27;20067;-46
2022/04/21 11:20:37;;;;;;;;;;;;;;;15.36;43.11;95488.78;5103067;27;20462;-45
2022/04/21 11:23:08;;;;;;;11.85;9.45;;;;;;;15.52;43.18;95495.59;5098028;27;19994;-46
2022/04/21 11:25:37;;;;;;;;;;;;;;;15.67;42.69;95490.16;5097120;28;20078;-47
2022/04/21 11:28:06;;;;;;;10.10;8.32;;;;;;;15.39;43.69;95484.91;5097195;27;20389;-50
2022/04/21 11:30:35;;;;;;;11.52;9.45;;;;;;;15.18;43.87;95483.19;5097843;27;20094;-49
2022/04/21 11:33:10;;;;;;;10.07;8.90;;;;;;;15.34;44.84;95490.00;5101791;27;20059;-47
2022/04/21 11:35:39;;;;;;;11.30;9.32;;;;;;;15.56;42.46;95488.03;5097821;27;20137;-47
2022/04/21 11:38:07;;;;;;;11.23;9.98;;;;;;;15.53;41.97;95493.75;5101609;27;20062;-45
2022/04/21 11:40:39;;;;;;;11.43;9.00;;;;;;;16.04;41.61;95490.66;5097946;28;20063;-48
2022/04/21 11:43:16;;;;;;;11.20;9.30;;;;;;;15.72;42.94;95479.72;5099819;27;20064;-48
2022/04/21 11:45:55;;;;;;;13.75;9.65;;;;;;;16.05;43.66;95482.47;5100726;27;20083;-47
2022/04/21 11:48:28;;;;;;;10.15;8.45;;;;;;;16.08;42.42;95486.56;5099154;28;20071;-50
2022/04/21 11:50:57;;;;;;;10.35;9.25;;;;;;;15.88;42.69;95479.34;5101306;27;20066;-44
2022/04/21 11:53:28;;;;;;;11.23;9.27;;;;;;;15.76;43.75;95480.97;5097282;28;20093;-51
2022/04/21 11:55:58;;;;;;;11.00;8.85;;;;;;;15.96;43.89;95473.03;5101135;27;20070;-44
2022/04/21 11:58:28;;;;;;;9.63;8.63;;;;;;;15.96;42.64;95470.38;5101002;27;20059;-43
2022/04/21 12:06:41;;;;;;;11.02;9.48;;;;;;;15.89;42.44;95453.59;5101489;27;20079;-47
2022/04/21 12:09:14;;;;;;;12.32;9.63;;;;;;;16.19;41.74;95451.38;5108917;27;20086;-47
2022/04/21 12:11:44;;;;;;;10.38;9.15;;;;;;;16.19;43.83;95453.22;5100747;27;20064;-49
2022/04/21 12:14:14;;;;;;;10.25;9.13;;;;;;;16.43;42.85;95449.94;5100115;27;20569;-48
2022/04/21 12:16:45;;;;;;;9.15;8.13;;;;;;;16.19;42.66;95447.91;5096615;27;20062;-49
2022/04/21 12:19:28;;;;;;;10.48;9.10;;;;;;;15.76;42.77;95449.09;5102456;27;20821;-54
2022/04/21 12:21:59;;;;;;;10.20;9.10;;;;;;;16.28;41.71;95446.69;5098694;28;20079;-46
2022/04/21 12:24:31;;;;;;;11.73;8.25;;;;;;;16.11;42.82;95444.41;5099768;28;20609;-49